EIGRN BIKF-BIKF
Flight info
| Callsign | EIGRN |
|---|---|
| Flight time | 0h 1m |
| Altitude | 2000 |
| Route | VFR |
| Aircraft | DA42/L-SDFGRY/C |
Departure
| Time | 2026-04-30 18:45 |
|---|---|
| Airport | Keflavik International Airport (BIKF) |
Arrival
| Time | 2026-04-30 18:46 |
|---|---|
| Airport | Keflavik International Airport (BIKF) |
| Time | Latitude | Longitude | Altitude | Speed | Heading |
|---|---|---|---|---|---|
| 2026-04-30 18:01 | 63.98040 | -22.58610 | 164 ft | 0 kts | 90° |
| 2026-04-30 18:23 | 63.98050 | -22.58642 | 165 ft | 9 kts | 276° |
| 2026-04-30 18:23 | 63.98089 | -22.58846 | 168 ft | 16 kts | 324° |
| 2026-04-30 18:23 | 63.98188 | -22.59012 | 170 ft | 20 kts | 338° |
| 2026-04-30 18:24 | 63.98443 | -22.59252 | 180 ft | 28 kts | 343° |
| 2026-04-30 18:24 | 63.98629 | -22.59294 | 172 ft | 27 kts | 359° |
| 2026-04-30 18:24 | 63.98848 | -22.59373 | 169 ft | 33 kts | 339° |
| 2026-04-30 18:25 | 63.98972 | -22.59586 | 174 ft | 14 kts | 312° |
| 2026-04-30 18:25 | 63.99166 | -22.60049 | 170 ft | 30 kts | 292° |
| 2026-04-30 18:25 | 63.99173 | -22.60412 | 169 ft | 19 kts | 270° |
| 2026-04-30 18:26 | 63.98707 | -22.60524 | 205 ft | 69 kts | 187° |
| 2026-04-30 18:26 | 63.98164 | -22.60506 | 328 ft | 85 kts | 186° |
| 2026-04-30 18:26 | 63.97535 | -22.60539 | 435 ft | 94 kts | 188° |
| 2026-04-30 18:27 | 63.96365 | -22.60806 | 555 ft | 77 kts | 231° |
| 2026-04-30 18:27 | 63.96395 | -22.62007 | 662 ft | 90 kts | 288° |
| 2026-04-30 18:28 | 63.97097 | -22.64643 | 759 ft | 98 kts | 294° |
| 2026-04-30 18:28 | 63.97577 | -22.65848 | 719 ft | 112 kts | 323° |
| 2026-04-30 18:28 | 63.98957 | -22.65860 | 681 ft | 130 kts | 1° |
| 2026-04-30 18:29 | 63.99771 | -22.65086 | 708 ft | 131 kts | 43° |
| 2026-04-30 18:29 | 63.99630 | -22.60507 | 370 ft | 84 kts | 186° |
| 2026-04-30 18:30 | 63.98596 | -22.60535 | 214 ft | 72 kts | 188° |
| 2026-04-30 18:30 | 63.97338 | -22.60545 | 363 ft | 103 kts | 189° |
| 2026-04-30 18:31 | 63.96610 | -22.60553 | 406 ft | 101 kts | 193° |
| 2026-04-30 18:31 | 63.96636 | -22.63012 | 651 ft | 107 kts | 299° |
| 2026-04-30 18:32 | 63.97660 | -22.65653 | 643 ft | 116 kts | 330° |
| 2026-04-30 18:32 | 63.98496 | -22.65787 | 611 ft | 122 kts | 353° |
| 2026-04-30 18:32 | 64.00035 | -22.65044 | 643 ft | 117 kts | 50° |
| 2026-04-30 18:33 | 64.00267 | -22.63286 | 537 ft | 119 kts | 89° |
| 2026-04-30 18:33 | 63.99706 | -22.60532 | 325 ft | 87 kts | 179° |
| 2026-04-30 18:33 | 63.99122 | -22.60510 | 194 ft | 83 kts | 193° |
| 2026-04-30 18:34 | 63.98640 | -22.60542 | 171 ft | 50 kts | 177° |
| 2026-04-30 18:34 | 63.98176 | -22.60519 | 191 ft | 69 kts | 189° |
| 2026-04-30 18:34 | 63.97624 | -22.60498 | 264 ft | 88 kts | 186° |
| 2026-04-30 18:35 | 63.96974 | -22.60520 | 324 ft | 96 kts | 187° |
| 2026-04-30 18:35 | 63.96470 | -22.60985 | 476 ft | 78 kts | 251° |
| 2026-04-30 18:35 | 63.96705 | -22.62215 | 518 ft | 95 kts | 295° |
| 2026-04-30 18:36 | 63.97508 | -22.64737 | 515 ft | 101 kts | 297° |
| 2026-04-30 18:36 | 63.98026 | -22.65754 | 551 ft | 102 kts | 343° |
| 2026-04-30 18:36 | 63.99526 | -22.65471 | 481 ft | 112 kts | 8° |
| 2026-04-30 18:37 | 64.00108 | -22.64358 | 587 ft | 114 kts | 63° |
| 2026-04-30 18:37 | 64.00277 | -22.62623 | 597 ft | 114 kts | 99° |
| 2026-04-30 18:37 | 64.00012 | -22.60983 | 524 ft | 108 kts | 143° |
| 2026-04-30 18:37 | 63.99367 | -22.60468 | 297 ft | 89 kts | 191° |
| 2026-04-30 18:38 | 63.98877 | -22.60539 | 172 ft | 54 kts | 182° |
| 2026-04-30 18:38 | 63.98552 | -22.60403 | 170 ft | 39 kts | 131° |
| 2026-04-30 18:38 | 63.98509 | -22.59720 | 175 ft | 50 kts | 95° |
| 2026-04-30 18:38 | 63.98702 | -22.59316 | 169 ft | 54 kts | 354° |
| 2026-04-30 18:39 | 63.98972 | -22.59592 | 174 ft | 34 kts | 315° |
| 2026-04-30 18:39 | 63.99110 | -22.59907 | 170 ft | 23 kts | 316° |
| 2026-04-30 18:39 | 63.99171 | -22.60080 | 170 ft | 9 kts | 277° |
| 2026-04-30 18:39 | 63.99171 | -22.60089 | 170 ft | 0 kts | 271° |
| 2026-04-30 18:42 | 63.99170 | -22.60242 | 169 ft | 26 kts | 269° |
| 2026-04-30 18:42 | 63.99141 | -22.60540 | 170 ft | 20 kts | 188° |
| 2026-04-30 18:45 | 63.98870 | -22.66008 | 793 ft | 122 kts | 358° |
| 2026-04-30 18:45 | 63.99716 | -22.65695 | 751 ft | 124 kts | 16° |
| 2026-04-30 18:45 | 64.00242 | -22.64246 | 775 ft | 121 kts | 80° |
| 2026-04-30 18:46 | 64.00294 | -22.62359 | 653 ft | 121 kts | 100° |
| 2026-04-30 18:46 | 63.99945 | -22.60826 | 521 ft | 106 kts | 155° |
| 2026-04-30 18:46 | 63.99314 | -22.60469 | 247 ft | 84 kts | 190° |
| 2026-04-30 18:46 | 63.98863 | -22.60543 | 169 ft | 48 kts | 183° |
| 2026-04-30 18:47 | 63.98456 | -22.60496 | 198 ft | 72 kts | 185° |
| 2026-04-30 18:47 | 63.97894 | -22.60569 | 321 ft | 90 kts | 184° |
| 2026-04-30 18:47 | 63.97224 | -22.60469 | 424 ft | 101 kts | 183° |
| 2026-04-30 18:47 | 63.96539 | -22.60453 | 531 ft | 91 kts | 201° |
| 2026-04-30 18:48 | 63.96338 | -22.61567 | 674 ft | 97 kts | 282° |
| 2026-04-30 18:48 | 63.96738 | -22.62889 | 758 ft | 105 kts | 301° |
| 2026-04-30 18:48 | 63.97327 | -22.64038 | 755 ft | 118 kts | 319° |
| 2026-04-30 18:48 | 63.97921 | -22.65317 | 740 ft | 118 kts | 292° |
| 2026-04-30 18:49 | 63.98499 | -22.66498 | 885 ft | 117 kts | 334° |
| 2026-04-30 18:49 | 63.99293 | -22.66148 | 908 ft | 126 kts | 27° |
| 2026-04-30 18:49 | 64.00100 | -22.65384 | 847 ft | 124 kts | 8° |
| 2026-04-30 18:49 | 64.00860 | -22.64582 | 936 ft | 117 kts | 46° |
| 2026-04-30 18:50 | 64.01081 | -22.62833 | 851 ft | 118 kts | 104° |
| 2026-04-30 18:50 | 64.00706 | -22.61276 | 684 ft | 114 kts | 144° |
| 2026-04-30 18:50 | 64.00048 | -22.60491 | 498 ft | 98 kts | 182° |
| 2026-04-30 18:50 | 63.99404 | -22.60474 | 268 ft | 87 kts | 194° |
| 2026-04-30 18:51 | 63.98814 | -22.60527 | 173 ft | 80 kts | 190° |
| 2026-04-30 18:51 | 63.98276 | -22.60525 | 194 ft | 84 kts | 188° |
| 2026-04-30 18:51 | 63.97668 | -22.60465 | 254 ft | 91 kts | 189° |
| 2026-04-30 18:51 | 63.96996 | -22.60494 | 369 ft | 100 kts | 190° |
| 2026-04-30 18:52 | 63.96462 | -22.61155 | 631 ft | 90 kts | 253° |
| 2026-04-30 18:52 | 63.96590 | -22.62591 | 768 ft | 102 kts | 281° |
| 2026-04-30 18:52 | 63.96925 | -22.64083 | 844 ft | 109 kts | 292° |
| 2026-04-30 18:52 | 63.97329 | -22.65545 | 868 ft | 110 kts | 304° |
| 2026-04-30 18:53 | 63.98103 | -22.65925 | 906 ft | 123 kts | 356° |
| 2026-04-30 18:53 | 63.98964 | -22.65735 | 886 ft | 126 kts | 0° |
| 2026-04-30 18:53 | 63.99760 | -22.65014 | 953 ft | 125 kts | 44° |
| 2026-04-30 18:53 | 64.00155 | -22.63232 | 873 ft | 130 kts | 82° |
| 2026-04-30 18:54 | 64.00112 | -22.61279 | 757 ft | 111 kts | 127° |
| 2026-04-30 18:54 | 63.99551 | -22.60472 | 390 ft | 94 kts | 185° |
| 2026-04-30 18:54 | 63.98903 | -22.60519 | 284 ft | 92 kts | 188° |
| 2026-04-30 18:54 | 63.98284 | -22.60502 | 279 ft | 88 kts | 187° |
| 2026-04-30 18:55 | 63.97683 | -22.60520 | 301 ft | 85 kts | 189° |
| 2026-04-30 18:55 | 63.96604 | -22.60841 | 405 ft | 69 kts | 239° |
| 2026-04-30 18:55 | 63.96692 | -22.61944 | 534 ft | 85 kts | 290° |
| 2026-04-30 18:56 | 63.97140 | -22.64713 | 688 ft | 97 kts | 275° |
| 2026-04-30 18:56 | 63.97392 | -22.66149 | 788 ft | 104 kts | 304° |
| 2026-04-30 18:56 | 63.98108 | -22.66620 | 877 ft | 112 kts | 1° |
| 2026-04-30 18:57 | 63.99574 | -22.65601 | 872 ft | 103 kts | 346° |
| 2026-04-30 18:57 | 64.00098 | -22.66351 | 832 ft | 87 kts | 268° |
| 2026-04-30 18:57 | 63.99743 | -22.67056 | 972 ft | 83 kts | 179° |
| 2026-04-30 18:58 | 63.98783 | -22.64754 | 760 ft | 128 kts | 116° |
| 2026-04-30 18:58 | 63.98588 | -22.62713 | 782 ft | 132 kts | 104° |
| 2026-04-30 18:58 | 63.98492 | -22.60617 | 835 ft | 133 kts | 101° |
| 2026-04-30 18:59 | 63.98135 | -22.57310 | 1078 ft | 81 kts | 219° |
| 2026-04-30 19:00 | 63.98468 | -22.61949 | 909 ft | 108 kts | 270° |
| 2026-04-30 19:00 | 63.98504 | -22.63611 | 949 ft | 106 kts | 268° |
| 2026-04-30 19:00 | 63.98538 | -22.67032 | 913 ft | 107 kts | 266° |
| 2026-04-30 19:01 | 63.98607 | -22.70309 | 1021 ft | 99 kts | 263° |
| 2026-04-30 19:01 | 63.98557 | -22.71898 | 1039 ft | 100 kts | 258° |
| 2026-04-30 19:02 | 63.98418 | -22.75099 | 1045 ft | 104 kts | 258° |
| 2026-04-30 19:02 | 63.98890 | -22.78131 | 1056 ft | 123 kts | 324° |
| 2026-04-30 19:03 | 64.00561 | -22.77534 | 1050 ft | 130 kts | 46° |
| 2026-04-30 19:03 | 64.00740 | -22.74091 | 1050 ft | 101 kts | 134° |
| 2026-04-30 19:04 | 63.99728 | -22.72720 | 1058 ft | 83 kts | 178° |
| 2026-04-30 19:04 | 63.98905 | -22.74178 | 1069 ft | 91 kts | 249° |
| 2026-04-30 19:05 | 63.98784 | -22.77159 | 1066 ft | 96 kts | 262° |
| 2026-04-30 19:05 | 63.98690 | -22.80244 | 1070 ft | 99 kts | 262° |
| 2026-04-30 19:06 | 63.98436 | -22.83244 | 1053 ft | 97 kts | 232° |
| 2026-04-30 19:06 | 63.97840 | -22.83954 | 1056 ft | 101 kts | 199° |
| 2026-04-30 19:06 | 63.96624 | -22.82251 | 1056 ft | 128 kts | 115° |
| 2026-04-30 19:07 | 63.96809 | -22.78070 | 1050 ft | 136 kts | 78° |
| 2026-04-30 19:07 | 63.97070 | -22.75968 | 1050 ft | 140 kts | 77° |
| 2026-04-30 19:08 | 63.97710 | -22.71653 | 1056 ft | 148 kts | 73° |
| 2026-04-30 19:08 | 63.98246 | -22.67093 | 1055 ft | 149 kts | 87° |
| 2026-04-30 19:08 | 63.98351 | -22.64745 | 1057 ft | 149 kts | 88° |
| 2026-04-30 19:09 | 63.98509 | -22.60016 | 1066 ft | 151 kts | 90° |
| 2026-04-30 19:09 | 63.98679 | -22.57690 | 1114 ft | 150 kts | 54° |
| 2026-04-30 19:09 | 63.99510 | -22.56561 | 1224 ft | 134 kts | 1° |
| 2026-04-30 19:10 | 64.01043 | -22.57446 | 1133 ft | 110 kts | 269° |
| 2026-04-30 19:10 | 64.00171 | -22.60154 | 504 ft | 108 kts | 209° |
| 2026-04-30 19:11 | 63.99452 | -22.60497 | 278 ft | 104 kts | 187° |
| 2026-04-30 19:11 | 63.98323 | -22.60510 | 265 ft | 81 kts | 181° |
| 2026-04-30 19:11 | 63.97740 | -22.60511 | 425 ft | 89 kts | 186° |
| 2026-04-30 19:12 | 63.97126 | -22.60589 | 656 ft | 87 kts | 192° |
| 2026-04-30 19:12 | 63.96758 | -22.61572 | 807 ft | 93 kts | 255° |
| 2026-04-30 19:12 | 63.96781 | -22.63129 | 828 ft | 102 kts | 271° |
| 2026-04-30 19:13 | 63.97376 | -22.65933 | 989 ft | 116 kts | 340° |
| 2026-04-30 19:13 | 63.98452 | -22.63389 | 989 ft | 125 kts | 87° |
| 2026-04-30 19:13 | 63.98511 | -22.61482 | 1109 ft | 118 kts | 90° |
| 2026-04-30 19:14 | 63.98581 | -22.59611 | 1164 ft | 121 kts | 86° |
| 2026-04-30 19:14 | 63.98281 | -22.58539 | 1303 ft | 78 kts | 216° |
| 2026-04-30 19:14 | 63.98240 | -22.59801 | 1224 ft | 97 kts | 275° |
| 2026-04-30 19:14 | 63.98285 | -22.61419 | 1159 ft | 107 kts | 265° |
| 2026-04-30 19:15 | 63.98278 | -22.63207 | 1042 ft | 120 kts | 265° |
| 2026-04-30 19:15 | 63.97977 | -22.67031 | 885 ft | 120 kts | 255° |
| 2026-04-30 19:15 | 63.97925 | -22.68899 | 872 ft | 116 kts | 262° |
| 2026-04-30 19:16 | 63.97670 | -22.69866 | 892 ft | 103 kts | 209° |
| 2026-04-30 19:16 | 63.97064 | -22.69363 | 937 ft | 110 kts | 118° |
| 2026-04-30 19:16 | 63.98049 | -22.68423 | 891 ft | 99 kts | 303° |
| 2026-04-30 19:17 | 63.98082 | -22.69773 | 839 ft | 91 kts | 225° |
| 2026-04-30 19:17 | 63.97522 | -22.68170 | 825 ft | 120 kts | 37° |
| 2026-04-30 19:17 | 63.98271 | -22.68000 | 787 ft | 110 kts | 319° |
| 2026-04-30 19:18 | 63.98291 | -22.69925 | 914 ft | 76 kts | 209° |
| 2026-04-30 19:18 | 63.98073 | -22.68270 | 787 ft | 129 kts | 73° |
| 2026-04-30 19:18 | 63.98353 | -22.66326 | 711 ft | 130 kts | 81° |
| 2026-04-30 19:19 | 63.98512 | -22.64309 | 725 ft | 128 kts | 90° |
| 2026-04-30 19:19 | 63.98546 | -22.62295 | 737 ft | 128 kts | 94° |
| 2026-04-30 19:19 | 63.98631 | -22.58182 | 862 ft | 128 kts | 90° |
| 2026-04-30 19:20 | 63.98521 | -22.56341 | 1018 ft | 106 kts | 139° |
| 2026-04-30 19:20 | 63.97928 | -22.55939 | 1020 ft | 86 kts | 204° |
| 2026-04-30 19:20 | 63.98384 | -22.57365 | 907 ft | 115 kts | 10° |
| 2026-04-30 19:21 | 63.98859 | -22.56048 | 983 ft | 115 kts | 101° |
| 2026-04-30 19:21 | 63.98148 | -22.55726 | 1068 ft | 96 kts | 292° |
| 2026-04-30 19:22 | 63.99604 | -22.56732 | 1245 ft | 124 kts | 359° |
| 2026-04-30 19:22 | 64.02059 | -22.53297 | 1510 ft | 150 kts | 16° |
| 2026-04-30 19:23 | 64.05092 | -22.51794 | 1706 ft | 154 kts | 12° |
| 2026-04-30 19:24 | 64.07144 | -22.50373 | 1820 ft | 156 kts | 13° |
| 2026-04-30 19:24 | 64.08160 | -22.49527 | 1921 ft | 154 kts | 16° |
| 2026-04-30 19:24 | 64.10191 | -22.47755 | 1995 ft | 158 kts | 18° |
| 2026-04-30 19:25 | 64.13219 | -22.44729 | 2191 ft | 158 kts | 18° |
| 2026-04-30 19:26 | 64.15315 | -22.43060 | 2266 ft | 158 kts | 9° |
| 2026-04-30 19:26 | 64.17421 | -22.42142 | 2458 ft | 152 kts | 3° |
| 2026-04-30 19:26 | 64.18472 | -22.41789 | 2532 ft | 153 kts | 3° |
| 2026-04-30 19:27 | 64.20567 | -22.41103 | 2662 ft | 152 kts | 3° |
| 2026-04-30 19:27 | 64.22670 | -22.40383 | 2832 ft | 154 kts | 3° |
| 2026-04-30 19:28 | 64.23725 | -22.40017 | 2920 ft | 153 kts | 2° |
| 2026-04-30 19:28 | 64.25528 | -22.37813 | 3057 ft | 154 kts | 59° |
| 2026-04-30 19:29 | 64.25261 | -22.33448 | 2896 ft | 148 kts | 147° |
| 2026-04-30 19:29 | 64.24337 | -22.32749 | 2659 ft | 139 kts | 191° |
| 2026-04-30 19:30 | 64.23589 | -22.37820 | 1958 ft | 150 kts | 307° |
| 2026-04-30 19:30 | 64.25562 | -22.39782 | 1493 ft | 158 kts | 335° |
| 2026-04-30 19:31 | 64.27315 | -22.38006 | 1467 ft | 141 kts | 64° |
| 2026-04-30 19:31 | 64.27467 | -22.35929 | 1472 ft | 130 kts | 106° |
| 2026-04-30 19:31 | 64.26376 | -22.33441 | 1473 ft | 106 kts | 172° |
| 2026-04-30 19:32 | 64.25682 | -22.33067 | 1474 ft | 102 kts | 178° |
| 2026-04-30 19:32 | 64.24983 | -22.32796 | 1471 ft | 100 kts | 190° |
| 2026-04-30 19:32 | 64.24408 | -22.33411 | 1489 ft | 90 kts | 234° |
| 2026-04-30 19:32 | 64.24282 | -22.34799 | 1487 ft | 95 kts | 277° |
| 2026-04-30 19:33 | 64.24712 | -22.36043 | 1491 ft | 110 kts | 321° |
| 2026-04-30 19:33 | 64.25498 | -22.36395 | 1482 ft | 120 kts | 349° |
| 2026-04-30 19:33 | 64.26322 | -22.35899 | 1480 ft | 129 kts | 30° |
| 2026-04-30 19:33 | 64.26860 | -22.34257 | 1487 ft | 131 kts | 73° |
| 2026-04-30 19:34 | 64.26850 | -22.32218 | 1485 ft | 126 kts | 118° |
| 2026-04-30 19:34 | 64.26325 | -22.30793 | 1491 ft | 112 kts | 161° |
| 2026-04-30 19:34 | 64.25133 | -22.31669 | 1487 ft | 96 kts | 247° |
| 2026-04-30 19:35 | 64.25088 | -22.33190 | 1489 ft | 101 kts | 285° |
| 2026-04-30 19:35 | 64.25592 | -22.34368 | 1482 ft | 113 kts | 327° |
| 2026-04-30 19:35 | 64.26336 | -22.34994 | 1485 ft | 115 kts | 333° |
| 2026-04-30 19:35 | 64.27153 | -22.34935 | 1480 ft | 126 kts | 17° |
| 2026-04-30 19:36 | 64.27818 | -22.33611 | 1476 ft | 130 kts | 60° |
| 2026-04-30 19:36 | 64.28002 | -22.31656 | 1482 ft | 123 kts | 103° |
| 2026-04-30 19:36 | 64.27038 | -22.29260 | 1491 ft | 97 kts | 186° |
| 2026-04-30 19:37 | 64.26435 | -22.29697 | 1485 ft | 90 kts | 216° |
| 2026-04-30 19:37 | 64.25925 | -22.30571 | 1488 ft | 97 kts | 224° |
| 2026-04-30 19:37 | 64.25381 | -22.31662 | 1485 ft | 109 kts | 224° |
| 2026-04-30 19:37 | 64.24791 | -22.32842 | 1486 ft | 115 kts | 225° |
| 2026-04-30 19:38 | 64.24183 | -22.34055 | 1484 ft | 119 kts | 224° |
| 2026-04-30 19:38 | 64.23492 | -22.35136 | 1485 ft | 121 kts | 215° |
| 2026-04-30 19:38 | 64.22769 | -22.36159 | 1490 ft | 123 kts | 216° |
| 2026-04-30 19:38 | 64.22039 | -22.37194 | 1484 ft | 124 kts | 215° |
| 2026-04-30 19:39 | 64.21310 | -22.38248 | 1475 ft | 124 kts | 215° |
| 2026-04-30 19:39 | 64.20556 | -22.39232 | 1471 ft | 125 kts | 208° |
| 2026-04-30 19:39 | 64.19768 | -22.40065 | 1495 ft | 124 kts | 208° |
| 2026-04-30 19:39 | 64.18986 | -22.40914 | 1496 ft | 124 kts | 208° |
| 2026-04-30 19:40 | 64.18202 | -22.41771 | 1492 ft | 125 kts | 208° |
| 2026-04-30 19:40 | 64.17413 | -22.42638 | 1496 ft | 126 kts | 208° |
| 2026-04-30 19:40 | 64.16635 | -22.43551 | 1495 ft | 125 kts | 212° |
| 2026-04-30 19:40 | 64.15887 | -22.44573 | 1497 ft | 125 kts | 213° |
| 2026-04-30 19:41 | 64.15134 | -22.45592 | 1497 ft | 126 kts | 213° |
| 2026-04-30 19:41 | 64.14387 | -22.46634 | 1500 ft | 126 kts | 213° |
| 2026-04-30 19:41 | 64.13630 | -22.47667 | 1497 ft | 127 kts | 212° |
| 2026-04-30 19:41 | 64.12897 | -22.48790 | 1499 ft | 126 kts | 221° |
| 2026-04-30 19:42 | 64.12251 | -22.50113 | 1488 ft | 124 kts | 223° |
| 2026-04-30 19:42 | 64.11597 | -22.51396 | 1490 ft | 124 kts | 222° |
| 2026-04-30 19:42 | 64.10925 | -22.52652 | 1489 ft | 125 kts | 221° |
| 2026-04-30 19:42 | 64.10249 | -22.53898 | 1489 ft | 125 kts | 220° |
| 2026-04-30 19:43 | 64.09560 | -22.55129 | 1466 ft | 127 kts | 214° |
| 2026-04-30 19:43 | 64.08768 | -22.56050 | 1471 ft | 127 kts | 208° |
| 2026-04-30 19:43 | 64.07969 | -22.56856 | 1533 ft | 124 kts | 207° |
| 2026-04-30 19:44 | 64.06296 | -22.58337 | 1500 ft | 135 kts | 202° |
| 2026-04-30 19:44 | 64.05392 | -22.59077 | 1408 ft | 141 kts | 203° |
| 2026-04-30 19:44 | 64.04430 | -22.59684 | 1354 ft | 145 kts | 199° |
| 2026-04-30 19:44 | 64.03427 | -22.60071 | 1211 ft | 148 kts | 193° |
| 2026-04-30 19:45 | 64.02439 | -22.60290 | 920 ft | 138 kts | 191° |
| 2026-04-30 19:45 | 64.01490 | -22.60420 | 665 ft | 136 kts | 187° |
| 2026-04-30 19:45 | 64.00552 | -22.60484 | 509 ft | 136 kts | 185° |
| 2026-04-30 19:45 | 63.99666 | -22.60503 | 310 ft | 114 kts | 185° |
| 2026-04-30 19:46 | 63.99012 | -22.60519 | 179 ft | 77 kts | 190° |
| 2026-04-30 19:46 | 63.98616 | -22.60539 | 169 ft | 42 kts | 185° |
| 2026-04-30 19:46 | 63.98486 | -22.60383 | 172 ft | 25 kts | 76° |
| 2026-04-30 19:46 | 63.98503 | -22.59835 | 175 ft | 34 kts | 87° |
| 2026-04-30 19:47 | 63.98494 | -22.59332 | 174 ft | 29 kts | 121° |
| 2026-04-30 19:47 | 63.98365 | -22.59184 | 171 ft | 32 kts | 157° |
| 2026-04-30 19:47 | 63.98205 | -22.58908 | 168 ft | 12 kts | 75° |
| 2026-04-30 19:47 | 63.98206 | -22.58889 | 168 ft | 0 kts | 96° |